createdAt,value
2023-05-22T00:01:02.700Z,8.00
2023-05-22T00:03:29.769Z,8.25
2023-05-22T00:05:58.203Z,9.27
2023-05-22T00:08:28.631Z,9.10
2023-05-22T00:10:58.292Z,9.23
2023-05-22T00:13:32.701Z,9.35
2023-05-22T00:15:59.330Z,8.80
2023-05-22T00:18:28.106Z,8.60
2023-05-22T00:20:59.228Z,9.48
2023-05-22T00:23:27.511Z,8.73
2023-05-22T00:25:54.718Z,8.50
2023-05-22T00:28:27.850Z,9.10
2023-05-22T00:31:00.824Z,9.13
2023-05-22T00:33:27.553Z,9.25
2023-05-22T00:35:56.478Z,8.70
2023-05-22T00:38:32.092Z,8.88
2023-05-22T00:41:00.178Z,9.07
2023-05-22T00:43:29.091Z,8.77
2023-05-22T00:45:56.136Z,9.02
2023-05-22T00:48:23.796Z,9.90
2023-05-22T00:50:54.748Z,9.18
2023-05-22T00:53:23.411Z,8.70
2023-05-22T00:55:53.787Z,8.90
2023-05-22T00:58:27.786Z,8.75
2023-05-22T01:00:58.755Z,9.05
2023-05-22T01:03:25.563Z,9.18
2023-05-22T01:05:55.512Z,12.60
2023-05-22T01:08:23.719Z,13.05
2023-05-22T01:11:22.558Z,11.45
2023-05-22T01:14:14.570Z,9.77
2023-05-22T01:17:21.825Z,9.57
2023-05-22T01:20:00.437Z,10.05
2023-05-22T01:22:42.705Z,9.52
2023-05-22T01:25:52.232Z,8.82
2023-05-22T01:28:22.862Z,9.05
2023-05-22T01:31:15.083Z,8.88
2023-05-22T01:33:48.931Z,9.00
2023-05-22T01:36:19.543Z,9.27
2023-05-22T01:38:49.835Z,9.05
2023-05-22T01:41:20.579Z,8.18
2023-05-22T01:44:13.998Z,9.15
2023-05-22T01:46:40.750Z,9.48
2023-05-22T01:49:09.950Z,8.32
2023-05-22T01:57:46.486Z,9.02
2023-05-22T02:00:16.683Z,8.77
2023-05-22T02:02:50.478Z,8.63
2023-05-22T02:05:23.947Z,9.02
2023-05-22T02:07:55.250Z,9.05
2023-05-22T02:10:23.249Z,9.07
2023-05-22T02:12:50.194Z,8.73
2023-05-22T02:15:18.292Z,9.07
2023-05-22T02:17:45.762Z,8.45
2023-05-22T02:20:14.879Z,8.98
2023-05-22T02:25:13.856Z,9.35
2023-05-22T02:27:46.927Z,9.07
2023-05-22T02:30:14.917Z,9.30
2023-05-22T02:32:42.898Z,8.88
2023-05-22T02:35:11.044Z,9.35
2023-05-22T02:37:42.948Z,8.60
2023-05-22T02:40:10.368Z,8.57
2023-05-22T02:42:39.278Z,7.97
2023-05-22T02:45:07.001Z,8.48
2023-05-22T02:47:36.135Z,8.48
2023-05-22T02:50:03.020Z,9.55
2023-05-22T02:52:30.877Z,8.43
2023-05-22T02:54:59.749Z,8.93
2023-05-22T02:57:28.787Z,8.32
2023-05-22T02:59:59.065Z,8.82
2023-05-22T03:02:27.660Z,9.30
2023-05-22T03:04:54.492Z,9.02
2023-05-22T03:07:24.973Z,8.75
2023-05-22T03:09:52.949Z,8.48
2023-05-22T03:12:21.409Z,9.35
2023-05-22T03:14:51.949Z,9.27
2023-05-22T03:17:19.920Z,8.95
2023-05-22T03:19:47.043Z,8.45
2023-05-22T03:22:13.835Z,9.93
2023-05-22T03:25:12.141Z,9.73
2023-05-22T03:27:42.259Z,9.18
2023-05-22T03:30:10.024Z,9.52
2023-05-22T03:32:39.536Z,9.70
2023-05-22T03:35:06.878Z,9.15
2023-05-22T03:37:37.054Z,9.90
2023-05-22T03:40:06.943Z,8.68
2023-05-22T03:42:35.336Z,8.93
2023-05-22T03:45:04.802Z,10.27
2023-05-22T03:47:38.109Z,8.48
2023-05-22T03:50:07.315Z,9.23
2023-05-22T03:52:34.046Z,8.93
2023-05-22T03:55:01.291Z,9.18
2023-05-22T03:57:29.738Z,9.70
2023-05-22T04:00:08.788Z,9.65
2023-05-22T04:02:44.534Z,8.70
2023-05-22T04:05:12.681Z,8.50
2023-05-22T04:07:40.109Z,8.48
2023-05-22T04:10:07.893Z,10.00
2023-05-22T04:12:37.075Z,8.43
2023-05-22T04:23:53.611Z,9.23
2023-05-22T04:26:20.657Z,8.98
2023-05-22T04:28:49.508Z,8.45
2023-05-22T04:31:17.240Z,9.50
2023-05-22T04:33:47.808Z,8.55
2023-05-22T04:36:17.349Z,10.10
2023-05-22T04:38:47.381Z,9.68
2023-05-22T04:41:19.227Z,9.05
2023-05-22T04:43:53.625Z,9.55
2023-05-22T04:46:21.188Z,10.00
2023-05-22T04:48:48.759Z,9.90
2023-05-22T04:51:17.772Z,9.85
2023-05-22T04:53:49.335Z,9.80
2023-05-22T04:56:31.798Z,9.63
2023-05-22T04:59:08.485Z,9.85
2023-05-22T05:01:44.995Z,9.70
2023-05-22T05:04:17.449Z,9.93
2023-05-22T05:06:47.803Z,9.95
2023-05-22T05:09:16.880Z,10.38
2023-05-22T05:11:45.896Z,9.25
2023-05-22T05:14:16.133Z,9.68
2023-05-22T05:22:31.734Z,10.02
2023-05-22T05:25:01.593Z,9.25
2023-05-22T05:27:29.202Z,10.25
2023-05-22T05:29:59.136Z,10.25
2023-05-22T05:32:41.065Z,10.30
2023-05-22T05:35:26.674Z,9.63
2023-05-22T05:38:09.506Z,9.65
2023-05-22T05:40:43.803Z,9.70
2023-05-22T05:43:16.910Z,9.35
2023-05-22T05:48:16.852Z,9.07
2023-05-22T05:50:46.650Z,10.60
2023-05-22T05:53:18.954Z,9.95
2023-05-22T05:55:56.032Z,10.23
2023-05-22T05:58:24.891Z,10.32
2023-05-22T06:01:04.275Z,10.52
2023-05-22T06:03:34.893Z,10.85
2023-05-22T06:06:29.445Z,9.60
2023-05-22T06:09:18.096Z,10.18
2023-05-22T06:12:17.614Z,9.90
2023-05-22T06:14:46.805Z,9.45
2023-05-22T06:17:21.029Z,9.27
2023-05-22T06:19:51.128Z,9.88
2023-05-22T06:22:18.432Z,10.13
2023-05-22T06:24:53.933Z,8.38
2023-05-22T06:27:28.386Z,8.95
2023-05-22T06:36:00.366Z,9.18
2023-05-22T06:38:29.270Z,9.55
2023-05-22T06:40:59.377Z,10.15
2023-05-22T06:43:27.443Z,8.88
2023-05-22T06:49:13.646Z,8.48
2023-05-22T06:51:46.611Z,9.57
2023-05-22T06:54:19.125Z,10.73
2023-05-22T06:59:23.257Z,8.77
2023-05-22T07:02:13.319Z,8.55
2023-05-22T07:05:00.848Z,8.45
2023-05-22T07:07:41.708Z,7.90
2023-05-22T07:10:12.333Z,8.38
2023-05-22T07:12:40.007Z,8.48
2023-05-22T07:15:11.554Z,8.20
2023-05-22T07:20:15.391Z,7.75
2023-05-22T07:22:47.761Z,8.18
2023-05-22T07:25:17.094Z,8.75
2023-05-22T07:27:47.068Z,8.23
2023-05-22T07:30:25.602Z,8.60
2023-05-22T07:33:01.166Z,8.27
2023-05-22T07:35:34.856Z,8.43
2023-05-22T07:38:05.182Z,8.27
2023-05-22T07:40:45.534Z,9.07
2023-05-22T07:43:17.934Z,8.85
2023-05-22T07:48:19.395Z,8.10
2023-05-22T07:50:54.866Z,9.00
2023-05-22T07:53:25.992Z,9.18
2023-05-22T07:56:03.384Z,8.82
2023-05-22T07:58:36.671Z,8.32
2023-05-22T08:01:09.412Z,7.75
2023-05-22T08:03:38.483Z,8.27
2023-05-22T08:06:07.049Z,8.27
2023-05-22T08:08:40.126Z,8.52
2023-05-22T08:11:15.255Z,7.80
2023-05-22T08:13:43.234Z,8.13
2023-05-22T08:16:11.820Z,8.70
2023-05-22T08:18:52.770Z,8.63
2023-05-22T08:21:24.866Z,8.65
2023-05-22T08:23:53.248Z,8.65
2023-05-22T08:26:20.914Z,8.32
2023-05-22T08:28:51.739Z,8.60
2023-05-22T08:31:20.974Z,8.00
2023-05-22T08:33:50.867Z,8.02
2023-05-22T08:36:23.055Z,7.88
2023-05-22T08:38:54.603Z,8.20
2023-05-22T08:41:27.703Z,7.78
2023-05-22T08:43:55.738Z,7.18
2023-05-22T08:58:10.975Z,7.03
2023-05-22T09:00:43.603Z,6.65
2023-05-22T09:03:16.047Z,7.43
2023-05-22T09:05:53.103Z,7.53
2023-05-22T09:08:26.739Z,7.13
2023-05-22T09:10:57.064Z,8.32
2023-05-22T09:13:31.866Z,7.97
2023-05-22T09:16:23.001Z,7.53
2023-05-22T09:18:54.000Z,7.18
2023-05-22T09:24:02.368Z,7.55
2023-05-22T09:26:34.633Z,7.05
2023-05-22T09:31:42.214Z,7.38
2023-05-22T09:34:18.332Z,6.82
2023-05-22T09:36:49.947Z,6.68
2023-05-22T09:39:20.913Z,7.22
2023-05-22T10:14:08.440Z,7.80
2023-05-22T10:34:09.262Z,8.55
2023-05-22T10:37:23.837Z,8.30
2023-05-22T10:52:08.232Z,8.10
2023-05-22T11:03:22.476Z,7.72
2023-05-22T11:12:36.756Z,7.88
2023-05-22T11:15:29.989Z,8.07
2023-05-22T11:18:02.432Z,8.60
2023-05-22T12:23:00.119Z,8.20
2023-05-22T12:41:45.084Z,7.22
2023-05-22T12:44:19.007Z,6.95
2023-05-22T13:29:38.595Z,8.52
2023-05-22T13:37:59.499Z,7.18
2023-05-22T13:43:39.437Z,7.50
2023-05-22T13:46:06.327Z,7.30
2023-05-22T14:34:04.395Z,6.85
2023-05-22T15:09:10.996Z,7.30
2023-05-22T15:11:37.796Z,8.38
2023-05-22T15:17:08.986Z,7.60
2023-05-22T15:28:50.424Z,8.05
2023-05-22T15:43:18.990Z,7.93
2023-05-22T15:52:17.694Z,7.28
2023-05-22T15:57:41.094Z,7.10
2023-05-22T16:06:40.754Z,7.47
2023-05-22T16:09:12.157Z,6.93
2023-05-22T16:11:42.733Z,11.13
2023-05-22T16:14:12.762Z,11.43
2023-05-22T16:16:41.591Z,8.07
2023-05-22T16:25:00.529Z,7.72
2023-05-22T16:27:27.247Z,7.72
2023-05-22T16:32:59.331Z,6.82
2023-05-22T16:38:26.341Z,7.35
2023-05-22T16:40:55.310Z,7.28
2023-05-22T16:43:24.313Z,7.63
2023-05-22T16:45:51.589Z,7.43
2023-05-22T16:48:18.527Z,7.13
2023-05-22T16:53:36.675Z,7.53
2023-05-22T17:11:35.423Z,6.47
2023-05-22T17:17:06.278Z,7.00
2023-05-22T17:19:33.130Z,8.43
2023-05-22T17:22:01.412Z,6.90
2023-05-22T17:24:29.304Z,7.88
2023-05-22T17:54:58.521Z,9.02
2023-05-22T17:57:35.740Z,8.13
2023-05-22T18:11:30.271Z,8.38
2023-05-22T18:16:53.409Z,7.95
2023-05-22T19:33:24.168Z,9.75
2023-05-22T19:45:10.970Z,8.68
2023-05-22T19:47:37.984Z,8.77
2023-05-22T19:53:11.321Z,9.65
2023-05-22T19:55:47.997Z,9.38
2023-05-22T19:58:16.678Z,10.13
2023-05-22T20:09:38.593Z,8.82
2023-05-22T20:18:21.959Z,9.05
2023-05-22T20:23:58.464Z,9.02
2023-05-22T20:41:33.464Z,9.85
2023-05-22T21:13:28.961Z,8.52
2023-05-22T21:36:50.190Z,7.85
2023-05-22T21:39:17.394Z,7.85
2023-05-22T21:59:32.498Z,7.35
2023-05-22T22:20:01.037Z,8.00
2023-05-22T22:31:16.311Z,7.80
2023-05-22T22:40:01.012Z,7.90
2023-05-22T22:42:31.507Z,7.57
2023-05-22T22:54:45.014Z,8.23
2023-05-22T23:00:12.599Z,8.48
